Weather reports worldwide

Advertisment
Grenoble le Versoud, France (7487): temperature & dewpoint: 29.07.2020 17:00:00 - 04.08.2020 17:00:00 (CEST)Grenoble le Versoud, France (7487): wind speed & gusts: 29.07.2020 17:00:00 - 04.08.2020 17:00:00 (CEST)Grenoble le Versoud, France (7487): wind direction: 29.07.2020 17:00:00 - 04.08.2020 17:00:00 (CEST)Grenoble le Versoud, France (7487): reduced air pressure: 29.07.2020 17:00:00 - 04.08.2020 17:00:00 (CEST)Grenoble le Versoud, France (7487): precipitation: 29.07.2020 17:00:00 - 04.08.2020 17:00:00 (CEST)
Date & Time tt [°C] td [°C] ff [km/h] ff [kn] fx [km/h] fx [kn] dd ppp [hPa] rr [mm]
04.08.2020 17:00:00 - - - - - - - - -
04.08.2020 16:00:00 22,1 11,2 20 11 38 21 NNE 1013,5 0,0
04.08.2020 15:00:00 22,5 11,9 25 14 40 21 NNE 1013,6 0,0
04.08.2020 14:00:00 22,3 12,0 26 14 45 24 NNE 1013,9 0,0
04.08.2020 13:00:00 21,2 12,1 26 14 39 21 NNE 1013,9 0,0
04.08.2020 12:00:00 19,3 11,3 20 11 41 22 NNE 1014,1 0,0
04.08.2020 11:00:00 19,7 12,2 22 12 32 17 NNE 1013,9 0,0
04.08.2020 10:00:00 18,4 13,9 16 9 25 14 NNE 1014,1 0,0
04.08.2020 09:00:00 15,7 13,5 4 2 8 4 SW 1014,3 0,0
04.08.2020 08:00:00 14,2 13,4 3 2 5 3 WSW 1014,5 0,0
04.08.2020 07:00:00 13,9 13,3 0 0 5 3 N 1014,2 0,0
04.08.2020 06:00:00 14,1 13,1 0 0 7 4 N 1014,0 0,0
04.08.2020 05:00:00 14,3 13,5 4 2 6 3 S 1013,9 0,0
04.08.2020 04:00:00 14,3 13,0 0 0 5 3 N 1013,9 0,4
04.08.2020 03:00:00 14,4 13,1 0 0 6 4 N 1014,2 0,0
04.08.2020 02:00:00 14,5 13,4 2 1 8 4 SE 1014,2 0,0
04.08.2020 01:00:00 14,9 13,9 3 2 9 5 ENE 1014,6 0,0
04.08.2020 00:00:00 15,0 13,2 0 0 10 5 N 1014,6 0,0
03.08.2020 23:00:00 15,0 13,4 3 1 10 5 ENE 1014,8 0,2
03.08.2020 22:00:00 15,2 13,7 3 2 34 18 N 1014,1 1,6
03.08.2020 21:00:00 16,8 12,5 16 9 32 17 SSW 1012,9 0,0
03.08.2020 20:00:00 18,3 12,9 12 7 21 12 NE 1011,8 0,0
03.08.2020 19:00:00 18,9 14,4 4 2 21 12 NE 1012,0 0,0
03.08.2020 18:00:00 18,5 14,6 15 8 28 15 NNE 1012,3 0,0
03.08.2020 17:00:00 18,5 14,8 9 5 19 10 ENE 1012,3 0,0
03.08.2020 16:00:00 18,1 15,7 5 3 20 11 ESE 1012,6 0,0
03.08.2020 15:00:00 16,9 15,4 13 7 22 12 N 1013,0 0,0
03.08.2020 14:00:00 17,4 15,9 8 4 21 12 NE 1012,8 2,8
03.08.2020 13:00:00 18,8 16,0 0 0 19 10 N 1012,3 0,6
03.08.2020 12:00:00 19,4 17,2 9 5 14 8 N 1011,6 0,0
03.08.2020 11:00:00 19,5 17,6 7 4 10 6 NNE 1011,4 0,0
03.08.2020 10:00:00 19,0 17,3 10 5 17 9 N 1011,3 0,6
03.08.2020 09:00:00 19,2 16,8 0 0 7 4 N 1011,4 0,0
03.08.2020 08:00:00 18,6 16,7 0 0 4 2 N 1011,6 0,0
03.08.2020 07:00:00 17,6 15,8 0 0 6 3 N 1011,5 0,0
03.08.2020 06:00:00 17,7 15,9 4 2 7 4 SE 1011,3 0,0
03.08.2020 05:00:00 18,0 15,8 4 2 6 4 ESE 1011,6 0,0
03.08.2020 04:00:00 17,5 15,8 0 0 5 3 N 1012,0 0,0
03.08.2020 03:00:00 18,2 15,8 0 0 9 5 N 1012,2 0,0
03.08.2020 02:00:00 19,1 16,1 2 1 11 6 WNW 1012,2 0,0
03.08.2020 01:00:00 20,8 16,4 5 3 11 6 E 1012,7 0,0
03.08.2020 00:00:00 20,7 16,3 3 2 11 6 N 1013,0 0,0
02.08.2020 23:00:00 21,7 16,6 2 1 21 12 NNE 1012,9 0,0
02.08.2020 22:00:00 22,5 16,5 5 3 27 14 ENE 1012,8 0,0
02.08.2020 21:00:00 23,2 16,3 14 8 27 15 N 1012,2 0,0
02.08.2020 20:00:00 24,0 17,3 17 9 26 14 NNE 1012,3 0,0
02.08.2020 19:00:00 24,7 17,9 20 11 35 19 NE 1011,8 0,0
02.08.2020 18:00:00 24,1 17,1 23 12 35 19 NE 1012,1 0,0
02.08.2020 17:00:00 25,0 20,5 16 9 24 13 NE 1011,5 0,0
02.08.2020 16:00:00 28,3 17,2 8 4 18 10 SSW 1011,1 0,0
02.08.2020 15:00:00 29,0 19,3 7 4 15 8 SW 1011,2 0,0
02.08.2020 14:00:00 29,1 17,6 4 2 15 8 W 1011,5 0,0
02.08.2020 13:00:00 27,5 18,2 9 5 16 9 N 1012,4 0,0
02.08.2020 12:00:00 27,5 17,7 3 1 16 9 SSW 1012,9 0,0
02.08.2020 11:00:00 25,7 17,9 7 4 16 9 NE 1013,9 0,0
02.08.2020 10:00:00 24,3 17,3 11 6 16 9 NNE 1014,0 0,0
02.08.2020 09:00:00 22,9 17,6 7 4 10 6 NNE 1014,4 0,0
02.08.2020 08:00:00 22,0 17,8 2 1 5 3 NW 1014,6 0,0
02.08.2020 07:00:00 19,0 16,6 0 0 7 4 N 1014,8 0,0
02.08.2020 06:00:00 19,3 16,5 0 0 5 3 N 1014,7 0,0
02.08.2020 05:00:00 20,5 16,3 4 2 9 5 WSW 1014,6 0,0
02.08.2020 04:00:00 21,9 16,8 8 4 21 11 N 1014,2 0,0
02.08.2020 03:00:00 22,0 16,7 2 1 9 5 W 1014,2 0,0
02.08.2020 02:00:00 24,1 16,4 0 0 23 13 N 1014,4 0,0
02.08.2020 01:00:00 25,6 16,4 19 11 31 17 NNE 1014,7 0,0
02.08.2020 00:00:00 25,0 17,2 13 7 21 11 NE 1014,1 0,0
01.08.2020 23:00:00 25,7 17,1 2 1 13 7 E 1013,4 0,0
01.08.2020 22:00:00 26,5 15,8 7 4 27 15 NNE 1012,9 0,0
01.08.2020 21:00:00 30,3 14,8 17 9 39 21 SSE 1012,3 0,0
01.08.2020 20:00:00 30,7 16,3 30 16 47 26 SSW 1012,2 0,0
01.08.2020 19:00:00 33,4 16,7 7 4 33 18 N 1010,3 0,0
01.08.2020 18:00:00 35,3 20,4 7 4 13 7 NE 1009,5 0,0
01.08.2020 17:00:00 35,8 19,3 9 5 14 7 NNE 1009,2 0,0
01.08.2020 16:00:00 35,7 16,0 4 2 13 7 N 1010,0 0,0
01.08.2020 15:00:00 35,4 16,7 3 2 10 6 SSW 1010,8 0,0
01.08.2020 14:00:00 34,5 19,7 0 0 9 5 N 1011,7 0,0
01.08.2020 13:00:00 32,4 16,3 2 1 11 6 WSW 1012,9 0,0
01.08.2020 12:00:00 30,7 17,0 4 2 8 4 WNW 1013,5 0,0
01.08.2020 11:00:00 29,2 18,3 0 0 13 7 N 1014,3 0,0
01.08.2020 10:00:00 27,6 17,2 0 0 5 3 N 1015,0 0,0
01.08.2020 09:00:00 25,5 18,7 0 0 3 2 N 1015,5 0,0
01.08.2020 08:00:00 22,4 17,3 3 1 8 5 ESE 1015,4 0,0
01.08.2020 07:00:00 19,3 17,1 4 2 6 4 NNE 1015,5 0,0
01.08.2020 06:00:00 19,4 17,0 0 0 4 2 N 1015,0 0,0
01.08.2020 05:00:00 19,7 17,3 2 1 5 3 N 1014,9 0,0
01.08.2020 04:00:00 20,6 17,6 2 1 9 5 NNE 1015,2 0,0
01.08.2020 03:00:00 21,9 17,7 3 2 7 4 ENE 1014,9 0,0
01.08.2020 02:00:00 22,9 18,0 0 0 7 4 N 1015,2 0,0
01.08.2020 01:00:00 24,2 17,7 6 3 13 7 NNE 1015,3 0,0
01.08.2020 00:00:00 24,7 18,9 0 0 9 5 N 1014,6 0,0
31.07.2020 23:00:00 24,3 19,4 5 3 9 5 NNW 1013,9 0,0
31.07.2020 22:00:00 26,5 19,1 0 0 6 4 N 1012,8 0,0
31.07.2020 21:00:00 28,5 18,0 3 1 6 3 NW 1011,6 0,0
31.07.2020 20:00:00 34,1 22,5 0 0 9 5 N 1010,4 0,0
31.07.2020 19:00:00 36,4 18,5 7 4 16 9 NE 1010,4 0,0
31.07.2020 18:00:00 38,2 18,1 5 3 7 4 WSW 1010,4 0,0
31.07.2020 17:00:00 38,4 17,2 3 1 6 3 NNW 1011,1 0,0
31.07.2020 16:00:00 37,3 15,7 2 1 9 5 WSW 1011,9 0,0
31.07.2020 15:00:00 35,7 15,4 3 2 10 5 WSW 1012,6 0,0
31.07.2020 14:00:00 34,0 18,1 5 3 11 6 SW 1013,3 0,0
31.07.2020 13:00:00 30,9 17,6 9 5 13 7 NNE 1014,4 0,0
31.07.2020 12:00:00 29,1 17,0 5 3 11 6 NNE 1015,4 0,0
31.07.2020 11:00:00 27,2 16,8 6 3 11 6 NNE 1016,2 0,0
31.07.2020 10:00:00 25,6 17,3 5 3 9 5 N 1017,0 0,0
31.07.2020 09:00:00 24,0 17,0 4 2 9 5 NE 1017,8 0,0
31.07.2020 08:00:00 20,6 17,4 4 2 7 4 NE 1017,9 0,0
31.07.2020 07:00:00 18,0 16,0 2 1 4 2 N 1018,0 0,0
31.07.2020 06:00:00 18,3 15,9 0 0 4 2 N 1018,1 0,0
31.07.2020 05:00:00 18,7 16,3 4 2 7 4 N 1017,8 0,0
31.07.2020 04:00:00 20,1 16,5 0 0 5 3 N 1017,6 0,0
31.07.2020 03:00:00 21,8 16,3 0 0 10 5 N 1017,4 0,0
31.07.2020 02:00:00 23,0 16,5 7 4 22 12 NNE 1017,5 0,0
31.07.2020 01:00:00 24,4 16,1 10 6 33 18 NNE 1017,2 0,0
31.07.2020 00:00:00 26,7 15,1 29 16 53 29 NNE 1016,4 0,0
30.07.2020 23:00:00 29,5 16,0 27 14 43 23 NE 1015,9 0,0
30.07.2020 22:00:00 30,7 17,0 7 4 19 11 S 1014,2 0,0
30.07.2020 21:00:00 31,6 18,9 4 2 18 10 SSW 1013,1 0,0
30.07.2020 20:00:00 34,1 19,7 3 2 14 7 E 1012,6 0,0
30.07.2020 19:00:00 35,5 21,4 8 4 13 7 N 1011,8 0,0
30.07.2020 18:00:00 36,1 18,7 5 3 8 4 N 1011,9 0,0
30.07.2020 17:00:00 35,7 18,8 5 3 17 9 NNW 1012,4 0,0
30.07.2020 16:00:00 35,1 17,8 4 2 10 5 N 1013,0 0,0
30.07.2020 15:00:00 34,7 19,9 3 2 9 5 SW 1013,7 0,0
30.07.2020 14:00:00 32,9 18,7 3 2 11 6 N 1014,5 0,0
30.07.2020 13:00:00 31,1 20,7 5 3 14 8 NNE 1015,5 0,0
30.07.2020 12:00:00 29,2 19,2 9 5 16 9 NE 1016,3 0,0
30.07.2020 11:00:00 27,5 18,8 6 3 18 10 NNE 1016,7 0,0
30.07.2020 10:00:00 25,9 19,1 4 2 9 5 NNE 1017,2 0,0
30.07.2020 09:00:00 24,0 18,0 0 0 9 5 N 1017,6 0,0
30.07.2020 08:00:00 22,5 18,3 0 0 8 4 N 1017,7 0,0
30.07.2020 07:00:00 19,2 17,5 3 1 5 3 N 1017,8 0,0
30.07.2020 06:00:00 19,5 17,5 0 0 4 2 N 1017,0 0,0
30.07.2020 05:00:00 20,0 17,6 0 0 5 3 N 1016,8 0,0
30.07.2020 04:00:00 21,3 18,3 2 1 8 4 NE 1016,7 0,0
30.07.2020 03:00:00 21,4 18,8 0 0 4 2 N 1016,8 0,0
30.07.2020 02:00:00 22,2 19,4 0 0 4 2 N 1016,9 0,0
30.07.2020 01:00:00 22,2 18,8 0 0 4 2 N 1016,9 0,0
30.07.2020 00:00:00 22,8 18,6 3 1 5 3 WNW 1016,3 0,0
29.07.2020 23:00:00 23,9 19,2 0 0 8 4 N 1016,0 0,0
29.07.2020 22:00:00 25,3 19,7 2 1 11 6 NE 1015,4 0,0
29.07.2020 21:00:00 27,3 19,4 3 2 11 6 W 1014,4 0,0
29.07.2020 20:00:00 29,1 18,8 9 5 19 10 NNE 1014,0 0,0
29.07.2020 19:00:00 31,3 19,6 14 7 18 10 NNE 1013,4 0,0
29.07.2020 18:00:00 33,2 20,7 3 2 10 5 N 1013,2 0,0
29.07.2020 17:00:00 32,8 20,3 5 3 11 6 WSW 1013,5 0,0

tt = temperature
td = dewpoint
ff = wind speed
fx = gusts
dd = wind direction
ppp = reduced air pressure
rr = precipitation

Next stations